Academy, New Jersey
Current Conditions -  °F | °C
As of 7:51 AM on Sunday 21 Dec 2014 (Local Time) from KEWR Reporting Station
Overcast Overcast  
Wind Chill: 25°   Ceiling: 1700
Heat Index: 32°   Visibility: 10mi
Dew Point: 26°   Wind: 8mph
Humidity: 79%   Direction: 350°N
Pressure: 30.31"   Gusts: NA
Location:  40.7334°N, 74.1735°W
Report Text: KEWR 211251Z 35007KT 10SM BKN017 OVC025 00/M03 A3031 RMK AO2 SLP261 T00001033
Loading
Personal Weather Stations






























Interactive Weather Map New forecast layout! Learn more

10-Day Weather Forecast

Advertisements
Track Severe Weather on mobile